createdAt,value
2022-09-27T00:00:48.103Z,12.11
2022-09-27T00:03:15.372Z,12.02
2022-09-27T00:05:42.638Z,12.03
2022-09-27T00:08:10.211Z,12.06
2022-09-27T00:10:37.947Z,12.10
2022-09-27T00:13:05.537Z,12.11
2022-09-27T00:15:33.176Z,12.04
2022-09-27T00:18:00.655Z,12.01
2022-09-27T00:20:27.621Z,12.10
2022-09-27T00:22:54.734Z,12.10
2022-09-27T00:25:22.564Z,12.00
2022-09-27T00:27:51.150Z,11.94
2022-09-27T00:30:18.718Z,11.90
2022-09-27T00:32:46.955Z,12.03
2022-09-27T00:35:14.527Z,11.88
2022-09-27T00:37:41.668Z,11.86
2022-09-27T00:40:09.355Z,11.82
2022-09-27T00:42:36.515Z,11.94
2022-09-27T00:45:17.995Z,11.88
2022-09-27T00:48:05.966Z,11.98
2022-09-27T00:50:40.892Z,12.09
2022-09-27T00:53:46.687Z,11.95
2022-09-27T00:56:19.830Z,11.87
2022-09-27T00:59:16.098Z,11.91
2022-09-27T01:01:43.904Z,12.02
2022-09-27T01:04:14.194Z,12.10
2022-09-27T01:06:41.399Z,12.03
2022-09-27T01:09:10.870Z,11.96
2022-09-27T01:12:08.944Z,12.02
2022-09-27T01:15:13.073Z,11.99
2022-09-27T01:17:42.776Z,12.00
2022-09-27T01:20:15.677Z,12.09
2022-09-27T01:23:08.146Z,12.03
2022-09-27T01:26:21.182Z,12.08
2022-09-27T01:28:52.690Z,12.06
2022-09-27T01:31:57.952Z,12.01
2022-09-27T01:34:35.664Z,11.94
2022-09-27T01:37:20.716Z,11.93
2022-09-27T01:40:00.075Z,12.09
2022-09-27T01:42:45.944Z,12.06
2022-09-27T01:45:30.807Z,11.99
2022-09-27T01:48:02.020Z,12.01
2022-09-27T01:50:39.410Z,12.09
2022-09-27T01:53:21.648Z,11.94
2022-09-27T01:55:51.326Z,12.03
2022-09-27T01:58:25.225Z,12.14
2022-09-27T02:00:55.470Z,12.09
2022-09-27T02:03:26.262Z,12.07
2022-09-27T02:06:01.743Z,12.02
2022-09-27T02:08:36.936Z,11.95
2022-09-27T02:11:09.551Z,11.99
2022-09-27T02:14:09.719Z,11.94
2022-09-27T02:16:36.645Z,12.03
2022-09-27T02:19:19.315Z,11.95
2022-09-27T02:22:11.527Z,11.78
2022-09-27T02:24:45.237Z,11.86
2022-09-27T02:27:27.756Z,11.94
2022-09-27T02:30:11.965Z,11.94
2022-09-27T02:32:39.589Z,11.88
2022-09-27T02:35:12.835Z,12.01
2022-09-27T02:37:39.916Z,12.06
2022-09-27T02:40:07.749Z,11.97
2022-09-27T02:42:35.889Z,11.94
2022-09-27T02:45:08.423Z,11.95
2022-09-27T02:48:15.263Z,11.90
2022-09-27T02:50:58.567Z,11.96
2022-09-27T02:53:28.184Z,12.01
2022-09-27T02:56:18.109Z,11.92
2022-09-27T02:59:00.160Z,11.99
2022-09-27T03:01:39.004Z,11.91
2022-09-27T03:04:12.520Z,11.86
2022-09-27T03:06:43.315Z,12.02
2022-09-27T03:09:29.949Z,11.94
2022-09-27T03:11:58.136Z,11.90
2022-09-27T03:14:24.970Z,11.86
2022-09-27T03:16:52.547Z,12.03
2022-09-27T03:19:20.138Z,11.93
2022-09-27T03:21:46.990Z,11.99
2022-09-27T03:24:17.653Z,11.89
2022-09-27T03:26:44.399Z,11.89
2022-09-27T03:29:11.472Z,11.82
2022-09-27T03:31:38.947Z,11.94
2022-09-27T03:34:09.985Z,11.91
2022-09-27T03:36:36.990Z,11.91
2022-09-27T03:39:04.679Z,11.96
2022-09-27T03:41:32.434Z,11.86
2022-09-27T03:44:00.174Z,11.83
2022-09-27T03:46:27.951Z,11.89
2022-09-27T03:48:55.248Z,11.85
2022-09-27T03:51:22.710Z,11.95
2022-09-27T03:53:50.787Z,11.83
2022-09-27T03:56:18.706Z,11.86
2022-09-27T03:58:46.574Z,11.84
2022-09-27T04:01:14.575Z,11.89
2022-09-27T04:03:43.035Z,11.80
2022-09-27T04:06:11.114Z,11.78
2022-09-27T04:08:39.701Z,11.79
2022-09-27T04:11:07.803Z,11.70
2022-09-27T04:13:35.753Z,11.78
2022-09-27T04:16:03.354Z,11.70
2022-09-27T04:18:31.154Z,11.82
2022-09-27T04:20:59.009Z,11.81
2022-09-27T04:23:29.720Z,11.75
2022-09-27T04:25:57.679Z,11.76
2022-09-27T04:28:24.340Z,11.74
2022-09-27T04:30:51.356Z,11.74
2022-09-27T04:33:18.486Z,11.69
2022-09-27T04:36:03.785Z,11.72
2022-09-27T04:38:31.110Z,11.68
2022-09-27T04:41:01.433Z,11.67
2022-09-27T04:43:29.760Z,11.67
2022-09-27T04:45:56.784Z,11.72
2022-09-27T04:48:23.702Z,11.81
2022-09-27T04:51:04.387Z,11.74
2022-09-27T04:53:31.758Z,11.76
2022-09-27T04:55:59.396Z,11.74
2022-09-27T04:58:26.900Z,11.69
2022-09-27T05:00:55.976Z,11.82
2022-09-27T05:03:23.270Z,11.70
2022-09-27T05:05:50.047Z,11.72
2022-09-27T05:08:17.028Z,11.71
2022-09-27T05:10:43.713Z,11.74
2022-09-27T05:13:10.535Z,11.62
2022-09-27T05:15:37.518Z,11.67
2022-09-27T05:18:04.319Z,11.72
2022-09-27T05:20:31.832Z,11.71
2022-09-27T05:22:58.989Z,11.82
2022-09-27T05:25:26.812Z,11.73
2022-09-27T05:27:53.599Z,11.66
2022-09-27T05:30:20.387Z,11.76
2022-09-27T05:32:50.276Z,11.67
2022-09-27T05:35:21.024Z,11.64
2022-09-27T05:37:56.034Z,11.75
2022-09-27T05:40:40.108Z,11.83
2022-09-27T05:43:07.842Z,11.75
2022-09-27T05:45:35.119Z,11.58
2022-09-27T05:48:02.332Z,11.57
2022-09-27T05:50:29.694Z,11.67
2022-09-27T05:52:56.529Z,11.72
2022-09-27T05:55:23.714Z,11.80
2022-09-27T05:57:57.758Z,11.72
2022-09-27T06:00:25.974Z,11.74
2022-09-27T06:02:58.582Z,11.76
2022-09-27T06:05:27.119Z,11.87
2022-09-27T06:08:00.513Z,11.72
2022-09-27T06:10:28.250Z,11.65
2022-09-27T06:12:59.702Z,11.67
2022-09-27T06:15:26.553Z,11.51
2022-09-27T06:17:53.313Z,11.54
2022-09-27T06:20:20.805Z,11.68
2022-09-27T06:22:47.697Z,11.73
2022-09-27T06:25:14.803Z,11.78
2022-09-27T06:27:41.635Z,11.75
2022-09-27T06:30:09.136Z,11.83
2022-09-27T06:32:35.749Z,11.83
2022-09-27T06:35:05.220Z,11.84
2022-09-27T06:37:31.874Z,11.82
2022-09-27T06:39:58.667Z,11.91
2022-09-27T06:42:27.656Z,11.99
2022-09-27T06:44:54.505Z,12.01
2022-09-27T06:47:21.293Z,12.07
2022-09-27T06:49:48.462Z,12.13
2022-09-27T06:52:15.152Z,11.88
2022-09-27T06:54:42.198Z,11.95
2022-09-27T06:57:09.452Z,12.06
2022-09-27T06:59:55.258Z,12.23
2022-09-27T07:02:25.722Z,12.06
2022-09-27T07:04:52.763Z,11.97
2022-09-27T07:07:19.564Z,11.98
2022-09-27T07:09:46.685Z,11.94
2022-09-27T07:12:14.567Z,11.92
2022-09-27T07:14:42.525Z,12.02
2022-09-27T07:17:09.442Z,11.78
2022-09-27T07:19:36.248Z,11.98
2022-09-27T07:22:03.124Z,12.01
2022-09-27T07:24:30.469Z,11.73
2022-09-27T07:26:57.296Z,11.72
2022-09-27T07:29:24.245Z,11.80
2022-09-27T07:31:52.387Z,11.60
2022-09-27T07:34:19.557Z,11.61
2022-09-27T07:36:46.864Z,11.65
2022-09-27T07:39:14.279Z,11.55
2022-09-27T07:41:43.911Z,11.47
2022-09-27T07:44:11.308Z,11.48
2022-09-27T07:46:38.471Z,11.37
2022-09-27T07:49:06.901Z,11.49
2022-09-27T07:51:35.075Z,11.61
2022-09-27T07:54:06.531Z,11.54
2022-09-27T07:56:35.323Z,11.58
2022-09-27T07:59:02.674Z,11.58
2022-09-27T08:01:30.234Z,11.51
2022-09-27T08:03:58.622Z,11.69
2022-09-27T08:06:25.857Z,11.73
2022-09-27T08:08:53.665Z,11.77
2022-09-27T08:11:22.085Z,11.83
2022-09-27T08:13:52.559Z,11.65
2022-09-27T08:16:20.251Z,11.66
2022-09-27T08:18:47.877Z,11.63
2022-09-27T08:21:15.130Z,11.90
2022-09-27T08:23:42.881Z,12.10
2022-09-27T08:26:09.713Z,12.00
2022-09-27T08:28:36.370Z,12.01
2022-09-27T08:31:03.363Z,12.04
2022-09-27T08:33:33.430Z,12.28
2022-09-27T08:36:03.444Z,11.97
2022-09-27T08:38:30.714Z,12.03
2022-09-27T08:41:12.733Z,12.16
2022-09-27T08:43:46.703Z,12.07
2022-09-27T08:46:24.544Z,12.14
2022-09-27T08:49:05.647Z,12.32
2022-09-27T08:51:34.797Z,12.30
2022-09-27T08:54:11.926Z,12.34
2022-09-27T08:56:38.816Z,12.31
2022-09-27T08:59:25.885Z,12.27
2022-09-27T09:01:54.821Z,12.21
2022-09-27T09:04:38.770Z,12.37
2022-09-27T09:07:28.067Z,12.37
2022-09-27T09:10:38.745Z,12.54
2022-09-27T09:13:22.913Z,12.61
2022-09-27T09:16:30.496Z,12.62
2022-09-27T09:19:28.364Z,12.70
2022-09-27T09:22:07.215Z,12.77
2022-09-27T09:24:41.150Z,12.69
2022-09-27T09:27:35.883Z,12.54
2022-09-27T09:30:03.090Z,12.72
2022-09-27T09:33:03.386Z,12.57
2022-09-27T09:35:46.009Z,12.49
2022-09-27T09:38:27.559Z,12.69
2022-09-27T09:41:13.146Z,12.71
2022-09-27T09:43:52.073Z,12.69
2022-09-27T09:46:45.936Z,12.67
2022-09-27T09:49:23.935Z,12.62
2022-09-27T09:52:00.057Z,12.44
2022-09-27T09:54:31.615Z,12.50
2022-09-27T09:57:27.632Z,12.34
2022-09-27T10:00:05.814Z,12.22
2022-09-27T10:02:35.931Z,12.25
2022-09-27T10:05:07.638Z,12.46
2022-09-27T10:07:38.862Z,12.50
2022-09-27T10:10:07.825Z,12.58
2022-09-27T10:16:22.799Z,12.72
2022-09-27T10:18:56.281Z,12.66
2022-09-27T10:21:26.318Z,12.55
2022-09-27T10:24:18.074Z,12.56
2022-09-27T10:26:48.570Z,12.72
2022-09-27T10:29:31.533Z,12.79
2022-09-27T10:32:05.461Z,12.74
2022-09-27T10:34:40.279Z,12.54
2022-09-27T10:37:21.758Z,12.65
2022-09-27T10:39:52.058Z,12.81
2022-09-27T10:42:35.451Z,12.78
2022-09-27T10:45:28.343Z,12.82
2022-09-27T10:47:56.686Z,13.06
2022-09-27T10:53:20.803Z,13.08
2022-09-27T10:55:50.182Z,12.94
2022-09-27T10:58:28.434Z,12.96
2022-09-27T11:01:03.348Z,12.97
2022-09-27T11:03:37.334Z,12.87
2022-09-27T11:06:24.893Z,13.12
2022-09-27T11:08:53.824Z,13.33
2022-09-27T11:11:26.641Z,13.33
2022-09-27T11:14:17.864Z,13.26
2022-09-27T11:17:07.631Z,13.17
2022-09-27T11:19:52.994Z,13.48
2022-09-27T11:22:54.923Z,13.36
2022-09-27T11:25:42.348Z,13.50
2022-09-27T11:28:49.315Z,13.59
2022-09-27T11:31:25.182Z,13.54
2022-09-27T11:34:07.679Z,13.64
2022-09-27T11:36:54.703Z,13.63
2022-09-27T11:39:42.117Z,13.72
2022-09-27T11:42:46.607Z,13.52
2022-09-27T11:46:14.387Z,13.47
2022-09-27T11:49:11.258Z,13.30
2022-09-27T11:51:56.212Z,13.31
2022-09-27T11:54:47.242Z,13.21
2022-09-27T11:57:31.595Z,13.28
2022-09-27T12:00:10.517Z,13.41
2022-09-27T12:03:12.600Z,13.53
2022-09-27T12:06:06.313Z,13.48
2022-09-27T12:08:54.337Z,13.64
2022-09-27T12:11:30.644Z,13.65
2022-09-27T12:14:01.528Z,13.78
2022-09-27T12:16:31.292Z,13.73
2022-09-27T12:18:59.912Z,13.49
2022-09-27T12:21:30.516Z,13.38
2022-09-27T12:23:59.671Z,13.41
2022-09-27T12:26:34.869Z,13.42
2022-09-27T12:29:20.344Z,13.48
2022-09-27T12:32:11.314Z,13.36
2022-09-27T12:34:56.830Z,13.45
2022-09-27T12:37:41.979Z,13.31
2022-09-27T12:40:18.363Z,13.35
2022-09-27T12:42:53.609Z,13.32
2022-09-27T12:45:34.206Z,13.13
2022-09-27T12:48:19.273Z,13.16
2022-09-27T12:51:14.065Z,13.15
2022-09-27T12:54:05.386Z,13.33
2022-09-27T12:56:40.756Z,13.21
2022-09-27T12:59:24.569Z,13.31
2022-09-27T13:02:09.725Z,13.32
2022-09-27T13:04:59.663Z,13.36
2022-09-27T13:07:38.209Z,13.11
2022-09-27T13:10:19.925Z,13.16
2022-09-27T13:12:54.574Z,13.40
2022-09-27T13:15:36.466Z,13.20
2022-09-27T13:18:06.864Z,13.31
2022-09-27T13:20:36.696Z,13.22
2022-09-27T13:23:18.658Z,13.35
2022-09-27T13:25:55.595Z,13.30
2022-09-27T13:28:28.782Z,13.39
2022-09-27T13:30:57.368Z,13.33
2022-09-27T13:33:51.691Z,13.50
2022-09-27T13:36:24.577Z,13.31
2022-09-27T13:39:19.926Z,12.96
2022-09-27T13:41:46.607Z,12.95
2022-09-27T13:44:26.930Z,12.90
2022-09-27T13:46:59.242Z,12.98
2022-09-27T13:49:40.581Z,12.70
2022-09-27T13:52:55.780Z,12.63
2022-09-27T13:55:52.731Z,12.57
2022-09-27T13:58:19.507Z,12.47
2022-09-27T14:00:51.205Z,12.42
2022-09-27T14:03:52.547Z,12.33
2022-09-27T14:06:49.256Z,12.25
2022-09-27T14:09:18.660Z,12.36
2022-09-27T14:11:52.643Z,12.40
2022-09-27T14:14:24.601Z,12.44
2022-09-27T14:16:51.406Z,12.34
2022-09-27T14:19:26.114Z,12.31
2022-09-27T14:21:53.519Z,12.28
2022-09-27T14:24:23.346Z,12.10
2022-09-27T14:27:03.028Z,12.13
2022-09-27T14:29:32.384Z,12.28
2022-09-27T14:32:09.361Z,12.19
2022-09-27T14:34:36.056Z,12.06
2022-09-27T14:37:21.381Z,12.16
2022-09-27T14:39:55.244Z,12.34
2022-09-27T14:42:28.855Z,12.37
2022-09-27T14:45:01.327Z,12.42
2022-09-27T14:47:29.300Z,12.67
2022-09-27T14:49:59.868Z,12.84
2022-09-27T14:52:31.466Z,12.88
2022-09-27T14:55:00.957Z,12.87
2022-09-27T14:57:32.794Z,12.95
2022-09-27T15:00:09.580Z,13.07
2022-09-27T15:02:38.247Z,13.24
2022-09-27T15:05:12.955Z,13.16
2022-09-27T15:07:40.100Z,13.26
2022-09-27T15:10:07.468Z,12.95
2022-09-27T15:12:35.678Z,13.09
2022-09-27T15:15:03.147Z,13.15
2022-09-27T15:17:41.089Z,13.21
2022-09-27T15:20:35.214Z,12.86
2022-09-27T15:23:04.533Z,12.75
2022-09-27T15:26:07.170Z,12.73
2022-09-27T15:28:39.374Z,12.65
2022-09-27T15:31:08.002Z,12.59
2022-09-27T15:33:35.857Z,12.61
2022-09-27T15:36:06.573Z,12.76
2022-09-27T15:38:43.969Z,12.70
2022-09-27T15:41:21.398Z,12.67
2022-09-27T15:43:50.741Z,12.80
2022-09-27T15:46:37.641Z,12.82
2022-09-27T15:49:16.890Z,12.67
2022-09-27T15:51:52.230Z,12.66
2022-09-27T15:54:25.148Z,12.49
2022-09-27T15:56:56.337Z,12.42
2022-09-27T15:59:28.661Z,12.40
2022-09-27T16:01:58.637Z,12.34
2022-09-27T16:04:26.328Z,12.41
2022-09-27T16:06:56.439Z,12.31
2022-09-27T16:09:23.460Z,12.30
2022-09-27T16:11:51.342Z,12.56
2022-09-27T16:14:19.761Z,12.57
2022-09-27T16:16:52.194Z,12.51
2022-09-27T16:19:19.423Z,12.60
2022-09-27T16:21:47.735Z,12.66
2022-09-27T16:24:17.716Z,12.59
2022-09-27T16:26:45.005Z,12.70
2022-09-27T16:29:13.974Z,12.54
2022-09-27T16:31:42.008Z,12.43
2022-09-27T16:34:10.458Z,12.45
2022-09-27T16:36:37.711Z,12.51
2022-09-27T16:39:06.621Z,12.49
2022-09-27T16:41:34.199Z,12.41
2022-09-27T16:44:07.121Z,12.22
2022-09-27T16:46:35.371Z,12.05
2022-09-27T16:49:03.059Z,12.01
2022-09-27T16:51:48.377Z,11.91
2022-09-27T16:54:15.980Z,11.84
2022-09-27T16:56:42.811Z,11.84
2022-09-27T16:59:09.944Z,11.78
2022-09-27T17:01:37.199Z,11.70
2022-09-27T17:04:04.838Z,11.67
2022-09-27T17:06:32.403Z,11.64
2022-09-27T17:09:04.318Z,11.60
2022-09-27T17:11:32.420Z,11.52
2022-09-27T17:14:00.145Z,11.51
2022-09-27T17:16:28.678Z,11.46
2022-09-27T17:18:58.236Z,11.44
2022-09-27T17:21:27.247Z,11.41
2022-09-27T17:23:54.158Z,11.29
2022-09-27T17:26:23.760Z,11.29
2022-09-27T17:28:52.822Z,11.25
2022-09-27T17:31:20.945Z,11.18
2022-09-27T17:33:55.528Z,11.19
2022-09-27T17:36:30.440Z,11.10
2022-09-27T17:38:59.393Z,11.11
2022-09-27T17:41:27.569Z,11.10
2022-09-27T17:43:59.502Z,11.04
2022-09-27T17:46:33.824Z,11.01
2022-09-27T17:49:21.742Z,10.93
2022-09-27T17:51:56.776Z,10.82
2022-09-27T17:54:28.144Z,10.73
2022-09-27T17:56:57.668Z,10.65
2022-09-27T17:59:27.721Z,10.64
2022-09-27T18:01:55.112Z,10.64
2022-09-27T18:04:22.004Z,10.60
2022-09-27T18:06:48.695Z,10.57
2022-09-27T18:09:17.314Z,10.55
2022-09-27T18:11:45.563Z,10.52
2022-09-27T18:14:14.316Z,10.54
2022-09-27T18:16:45.582Z,10.50
2022-09-27T18:19:15.652Z,10.54
2022-09-27T18:21:43.184Z,10.52
2022-09-27T18:24:11.141Z,10.50
2022-09-27T18:26:39.030Z,10.51
2022-09-27T18:29:18.507Z,10.50
2022-09-27T18:31:48.992Z,10.45
2022-09-27T18:34:18.507Z,10.47
2022-09-27T18:36:46.473Z,10.45
2022-09-27T18:39:17.381Z,10.46
2022-09-27T18:41:48.714Z,10.40
2022-09-27T18:44:16.848Z,10.41
2022-09-27T18:46:45.583Z,10.50
2022-09-27T18:49:14.483Z,10.51
2022-09-27T18:51:44.604Z,10.49
2022-09-27T18:54:22.670Z,10.54
2022-09-27T18:56:50.838Z,10.64
2022-09-27T18:59:19.722Z,10.84
2022-09-27T19:01:47.035Z,10.96
2022-09-27T19:04:21.539Z,11.01
2022-09-27T19:06:51.087Z,10.92
2022-09-27T19:09:18.112Z,11.09
2022-09-27T19:11:45.251Z,11.02
2022-09-27T19:14:16.802Z,10.97
2022-09-27T19:16:46.946Z,10.89
2022-09-27T19:19:18.138Z,10.91
2022-09-27T19:21:45.049Z,10.89
2022-09-27T19:24:12.261Z,10.87
2022-09-27T19:26:39.423Z,10.90
2022-09-27T19:29:06.765Z,10.71
2022-09-27T19:31:35.586Z,10.74
2022-09-27T19:34:02.528Z,10.68
2022-09-27T19:36:29.472Z,10.74
2022-09-27T19:38:58.928Z,10.61
2022-09-27T19:41:26.675Z,10.51
2022-09-27T19:43:55.586Z,10.60
2022-09-27T19:46:23.866Z,10.41
2022-09-27T19:48:51.092Z,10.36
2022-09-27T19:51:19.507Z,10.33
2022-09-27T19:53:46.651Z,10.25
2022-09-27T19:56:13.591Z,10.35
2022-09-27T19:58:41.392Z,10.24
2022-09-27T20:01:12.409Z,10.21
2022-09-27T20:03:41.619Z,10.23
2022-09-27T20:06:12.003Z,10.25
2022-09-27T20:08:39.072Z,10.24
2022-09-27T20:11:11.423Z,10.29
2022-09-27T20:13:39.170Z,10.10
2022-09-27T20:16:07.318Z,10.02
2022-09-27T20:18:38.189Z,9.96
2022-09-27T20:21:05.344Z,9.90
2022-09-27T20:23:34.298Z,9.82
2022-09-27T20:26:08.154Z,9.83
2022-09-27T20:28:40.864Z,9.69
2022-09-27T20:31:07.768Z,9.69
2022-09-27T20:33:51.309Z,9.65
2022-09-27T20:36:31.098Z,9.58
2022-09-27T20:39:03.536Z,9.41
2022-09-27T20:41:34.655Z,9.47
2022-09-27T20:44:04.319Z,9.44
2022-09-27T20:46:32.341Z,9.41
2022-09-27T20:49:03.111Z,9.31
2022-09-27T20:51:32.538Z,9.31
2022-09-27T20:54:00.633Z,9.26
2022-09-27T20:56:34.772Z,9.23
2022-09-27T20:59:04.893Z,9.26
2022-09-27T21:01:32.610Z,9.11
2022-09-27T21:04:01.814Z,9.15
2022-09-27T21:06:31.257Z,9.18
2022-09-27T21:08:59.406Z,9.28
2022-09-27T21:23:02.072Z,9.15
2022-09-27T21:25:29.137Z,9.02
2022-09-27T21:27:58.035Z,9.05
2022-09-27T21:30:24.993Z,9.04
2022-09-27T21:32:55.653Z,9.05
2022-09-27T21:35:22.950Z,9.06
2022-09-27T21:37:49.847Z,9.10
2022-09-27T21:40:17.013Z,9.11
2022-09-27T21:42:43.746Z,9.04
2022-09-27T21:45:10.889Z,9.08
2022-09-27T21:47:37.638Z,9.12
2022-09-27T21:50:04.597Z,9.20
2022-09-27T21:52:31.314Z,9.23
2022-09-27T21:54:58.347Z,9.24
2022-09-27T21:57:25.150Z,9.30
2022-09-27T21:59:52.138Z,9.29
2022-09-27T22:02:20.198Z,9.28
2022-09-27T22:04:49.359Z,9.15
2022-09-27T22:07:16.183Z,9.19
2022-09-27T22:09:42.927Z,9.17
2022-09-27T22:12:09.746Z,9.09
2022-09-27T22:14:36.490Z,9.11
2022-09-27T22:17:03.186Z,9.20
2022-09-27T22:19:30.161Z,9.25
2022-09-27T22:21:56.987Z,9.27
2022-09-27T22:24:23.850Z,9.20
2022-09-27T22:26:52.853Z,9.15
2022-09-27T22:29:20.092Z,9.11
2022-09-27T22:31:47.941Z,9.05
2022-09-27T22:34:18.933Z,9.00
2022-09-27T22:36:46.879Z,8.99
2022-09-27T22:39:14.586Z,8.97
2022-09-27T22:41:41.606Z,8.93
2022-09-27T22:44:08.706Z,9.01
2022-09-27T22:46:35.861Z,8.96
2022-09-27T22:49:02.608Z,8.98
2022-09-27T22:51:29.781Z,8.95
2022-09-27T22:53:56.469Z,8.96
2022-09-27T22:56:24.869Z,8.97
2022-09-27T22:58:51.811Z,8.95
2022-09-27T23:01:25.282Z,9.00
2022-09-27T23:03:54.360Z,9.01
2022-09-27T23:06:22.308Z,9.00
2022-09-27T23:08:50.094Z,9.00
2022-09-27T23:11:19.834Z,9.02
2022-09-27T23:13:48.310Z,8.99
2022-09-27T23:16:25.205Z,8.99
2022-09-27T23:18:53.485Z,9.04
2022-09-27T23:21:20.392Z,9.05
2022-09-27T23:23:47.190Z,9.01
2022-09-27T23:26:16.086Z,9.04
2022-09-27T23:28:43.401Z,9.07
2022-09-27T23:31:16.870Z,9.29
2022-09-27T23:33:47.569Z,9.34
2022-09-27T23:36:17.265Z,9.37
2022-09-27T23:38:45.934Z,9.38
2022-09-27T23:41:13.969Z,9.35
2022-09-27T23:43:41.004Z,9.43
2022-09-27T23:46:09.842Z,9.29
2022-09-27T23:48:36.792Z,9.34
2022-09-27T23:51:05.776Z,9.35
2022-09-27T23:53:32.708Z,9.31
2022-09-27T23:56:03.481Z,9.33
2022-09-27T23:58:34.386Z,9.32
